createdAt,value
2017-11-26T00:00:15.387Z,3.30
2017-11-26T00:02:42.830Z,3.30
2017-11-26T00:05:10.395Z,3.30
2017-11-26T00:07:37.819Z,3.30
2017-11-26T00:10:05.308Z,3.30
2017-11-26T00:12:32.731Z,3.30
2017-11-26T00:15:00.165Z,3.30
2017-11-26T00:17:27.651Z,3.30
2017-11-26T00:19:55.150Z,3.30
2017-11-26T00:22:22.624Z,3.30
2017-11-26T00:24:50.063Z,3.30
2017-11-26T00:27:17.869Z,3.30
2017-11-26T00:29:45.312Z,3.30
2017-11-26T00:32:12.747Z,3.30
2017-11-26T00:34:40.267Z,3.30
2017-11-26T00:37:08.129Z,3.30
2017-11-26T00:39:35.577Z,3.30
2017-11-26T00:42:03.117Z,3.40
2017-11-26T00:44:30.818Z,3.40
2017-11-26T00:46:58.281Z,3.40
2017-11-26T00:49:25.846Z,3.40
2017-11-26T00:51:53.291Z,3.40
2017-11-26T00:54:20.729Z,3.50
2017-11-26T00:56:55.917Z,3.50
2017-11-26T00:59:23.465Z,3.50
2017-11-26T01:01:50.945Z,3.50
2017-11-26T01:04:18.399Z,3.60
2017-11-26T01:06:45.899Z,3.60
2017-11-26T01:09:13.424Z,3.60
2017-11-26T01:11:40.866Z,3.60
2017-11-26T01:14:08.293Z,3.60
2017-11-26T01:16:35.832Z,3.60
2017-11-26T01:19:03.309Z,3.60
2017-11-26T01:21:31.513Z,3.60
2017-11-26T01:23:59.042Z,3.50
2017-11-26T01:26:27.254Z,3.60
2017-11-26T01:28:54.694Z,3.50
2017-11-26T01:31:22.323Z,3.60
2017-11-26T01:33:49.760Z,3.60
2017-11-26T01:36:17.189Z,3.60
2017-11-26T01:38:44.640Z,3.60
2017-11-26T01:41:13.172Z,3.70
2017-11-26T01:43:40.643Z,3.60
2017-11-26T01:46:08.066Z,3.70
2017-11-26T01:48:35.557Z,3.70
2017-11-26T01:51:03.436Z,3.80
2017-11-26T01:53:30.890Z,3.80
2017-11-26T01:55:58.398Z,3.80
2017-11-26T01:58:25.848Z,3.90
2017-11-26T02:00:53.687Z,3.90
2017-11-26T02:03:21.142Z,3.90
2017-11-26T02:05:48.577Z,4.00
2017-11-26T02:08:16.043Z,3.90
2017-11-26T02:10:43.472Z,3.90
2017-11-26T02:13:10.905Z,3.90
2017-11-26T02:15:38.346Z,3.90
2017-11-26T02:18:05.796Z,3.90
2017-11-26T02:20:33.252Z,3.90
2017-11-26T02:23:00.678Z,3.90
2017-11-26T02:25:28.116Z,3.90
2017-11-26T02:27:55.553Z,3.90
2017-11-26T02:30:23.026Z,3.90
2017-11-26T02:33:02.149Z,3.90
2017-11-26T02:35:39.450Z,3.90
2017-11-26T02:38:06.899Z,3.90
2017-11-26T02:40:34.363Z,3.90
2017-11-26T02:43:01.831Z,3.90
2017-11-26T02:45:29.286Z,3.90
2017-11-26T02:47:56.731Z,3.90
2017-11-26T02:50:24.222Z,4.00
2017-11-26T02:52:51.675Z,4.00
2017-11-26T02:55:19.147Z,3.90
2017-11-26T02:57:46.579Z,4.00
2017-11-26T03:00:14.037Z,4.00
2017-11-26T03:02:41.473Z,4.00
2017-11-26T03:05:08.973Z,4.00
2017-11-26T03:07:36.845Z,4.00
2017-11-26T03:10:04.307Z,4.10
2017-11-26T03:12:31.739Z,4.00
2017-11-26T03:14:59.187Z,4.10
2017-11-26T03:17:26.701Z,4.10
2017-11-26T03:19:54.191Z,4.10
2017-11-26T03:22:21.633Z,4.10
2017-11-26T03:24:49.074Z,4.10
2017-11-26T03:27:16.519Z,4.10
2017-11-26T03:29:44.011Z,4.10
2017-11-26T03:32:11.484Z,4.10
2017-11-26T03:34:38.906Z,4.10
2017-11-26T03:37:06.341Z,4.10
2017-11-26T03:39:33.799Z,4.10
2017-11-26T03:42:01.295Z,4.00
2017-11-26T03:44:28.801Z,4.00
2017-11-26T03:46:56.629Z,3.90
2017-11-26T03:49:24.073Z,3.90
2017-11-26T03:51:51.590Z,3.90
2017-11-26T03:54:19.022Z,3.80
2017-11-26T03:56:46.525Z,3.80
2017-11-26T03:59:13.961Z,3.70
2017-11-26T04:01:41.485Z,3.60
2017-11-26T04:04:08.934Z,3.60
2017-11-26T04:06:36.390Z,3.50
2017-11-26T04:09:04.198Z,3.50
2017-11-26T04:11:31.668Z,3.40
2017-11-26T04:13:59.205Z,3.40
2017-11-26T04:16:26.942Z,3.40
2017-11-26T04:18:54.406Z,3.30
2017-11-26T04:21:21.836Z,3.30
2017-11-26T04:23:49.276Z,3.30
2017-11-26T04:26:16.823Z,3.30
2017-11-26T04:28:44.270Z,3.20
2017-11-26T04:31:11.713Z,3.20
2017-11-26T04:33:39.219Z,3.20
2017-11-26T04:36:06.662Z,3.20
2017-11-26T04:38:34.097Z,3.20
2017-11-26T04:41:01.533Z,3.30
2017-11-26T04:43:28.961Z,3.30
2017-11-26T04:45:56.431Z,3.40
2017-11-26T04:48:23.883Z,3.40
2017-11-26T04:50:51.386Z,3.40
2017-11-26T04:53:18.922Z,3.40
2017-11-26T04:55:46.388Z,3.50
2017-11-26T04:58:14.113Z,3.50
2017-11-26T05:00:41.549Z,3.60
2017-11-26T05:03:09.170Z,3.70
2017-11-26T05:05:36.614Z,3.70
2017-11-26T05:08:04.102Z,3.80
2017-11-26T05:10:31.531Z,3.80
2017-11-26T05:12:59.001Z,3.80
2017-11-26T05:15:26.438Z,3.90
2017-11-26T05:17:53.922Z,3.80
2017-11-26T05:20:21.394Z,3.80
2017-11-26T05:22:48.829Z,3.80
2017-11-26T05:25:16.263Z,3.80
2017-11-26T05:27:43.735Z,3.70
2017-11-26T05:30:11.222Z,3.70
2017-11-26T05:32:38.658Z,3.70
2017-11-26T05:35:06.169Z,3.70
2017-11-26T05:37:33.612Z,3.60
2017-11-26T05:40:01.086Z,3.60
2017-11-26T05:42:28.526Z,3.50
2017-11-26T05:44:55.966Z,3.50
2017-11-26T05:47:23.479Z,3.50
2017-11-26T05:49:51.326Z,3.50
2017-11-26T05:52:19.200Z,3.50
2017-11-26T05:54:46.660Z,3.60
2017-11-26T05:57:14.120Z,3.60
2017-11-26T05:59:41.573Z,3.60
2017-11-26T06:02:09.015Z,3.70
2017-11-26T06:04:36.502Z,3.70
2017-11-26T06:07:03.963Z,3.70
2017-11-26T06:09:31.395Z,3.80
2017-11-26T06:11:58.855Z,3.80
2017-11-26T06:14:26.289Z,3.80
2017-11-26T06:16:53.822Z,3.80
2017-11-26T06:19:21.255Z,3.80
2017-11-26T06:21:48.697Z,3.80
2017-11-26T06:24:16.146Z,3.80
2017-11-26T06:26:43.648Z,3.80
2017-11-26T06:29:11.111Z,3.70
2017-11-26T06:31:38.556Z,3.70
2017-11-26T06:34:06.046Z,3.70
2017-11-26T06:36:33.518Z,3.70
2017-11-26T06:39:00.947Z,3.70
2017-11-26T06:41:28.430Z,3.70
2017-11-26T06:43:55.920Z,3.70
2017-11-26T06:46:23.350Z,3.70
2017-11-26T06:48:50.807Z,3.70
2017-11-26T06:51:18.251Z,3.60
2017-11-26T06:53:45.736Z,3.60
2017-11-26T06:56:13.178Z,3.60
2017-11-26T06:58:40.652Z,3.50
2017-11-26T07:01:08.101Z,3.60
2017-11-26T07:03:35.537Z,3.60
2017-11-26T07:06:03.013Z,3.60
2017-11-26T07:08:30.434Z,3.60
2017-11-26T07:10:57.958Z,3.60
2017-11-26T07:13:25.418Z,3.60
2017-11-26T07:15:52.882Z,3.60
2017-11-26T07:18:20.346Z,3.60
2017-11-26T07:20:47.797Z,3.60
2017-11-26T07:23:15.236Z,3.60
2017-11-26T07:25:42.682Z,3.60
2017-11-26T07:28:10.178Z,3.70
2017-11-26T07:30:37.665Z,3.80
2017-11-26T07:33:05.114Z,3.80
2017-11-26T07:35:32.521Z,3.80
2017-11-26T07:37:59.969Z,3.80
2017-11-26T07:40:27.497Z,3.80
2017-11-26T07:42:54.962Z,3.80
2017-11-26T07:45:22.398Z,3.90
2017-11-26T07:47:49.878Z,3.90
2017-11-26T07:50:17.333Z,4.00
2017-11-26T07:52:44.768Z,4.00
2017-11-26T07:55:12.238Z,4.00
2017-11-26T07:57:39.682Z,4.10
2017-11-26T08:00:07.182Z,4.20
2017-11-26T08:02:34.633Z,4.30
2017-11-26T08:05:02.185Z,4.30
2017-11-26T08:07:29.635Z,4.40
2017-11-26T08:09:57.066Z,4.50
2017-11-26T08:12:25.341Z,4.50
2017-11-26T08:14:53.164Z,4.50
2017-11-26T08:17:20.715Z,4.50
2017-11-26T08:19:48.178Z,4.50
2017-11-26T08:22:15.959Z,4.60
2017-11-26T08:24:43.419Z,4.60
2017-11-26T08:27:10.881Z,4.70
2017-11-26T08:29:38.688Z,4.80
2017-11-26T08:32:06.150Z,4.80
2017-11-26T08:34:34.082Z,4.90
2017-11-26T08:37:01.525Z,4.90
2017-11-26T08:39:28.991Z,5.00
2017-11-26T08:41:56.573Z,5.00
2017-11-26T08:44:24.023Z,5.10
2017-11-26T08:46:51.455Z,5.10
2017-11-26T08:49:18.907Z,5.10
2017-11-26T08:51:46.355Z,5.20
2017-11-26T08:54:13.810Z,5.20
2017-11-26T08:56:41.274Z,5.20
2017-11-26T08:59:08.711Z,5.20
2017-11-26T09:01:36.147Z,5.20
2017-11-26T09:04:03.591Z,5.20
2017-11-26T09:06:33.703Z,5.20
2017-11-26T09:09:02.946Z,5.20
2017-11-26T09:11:30.387Z,5.20
2017-11-26T09:13:57.853Z,5.30
2017-11-26T09:16:25.449Z,5.40
2017-11-26T09:18:52.887Z,5.50
2017-11-26T09:21:20.372Z,5.60
2017-11-26T09:23:47.817Z,5.70
2017-11-26T09:26:15.298Z,5.70
2017-11-26T09:28:42.841Z,5.70
2017-11-26T09:31:10.271Z,5.70
2017-11-26T09:33:37.724Z,5.80
2017-11-26T09:36:05.534Z,5.80
2017-11-26T09:38:32.982Z,5.80
2017-11-26T09:41:00.419Z,5.70
2017-11-26T09:43:27.924Z,5.70
2017-11-26T09:45:55.347Z,5.60
2017-11-26T09:48:22.846Z,5.60
2017-11-26T09:50:50.318Z,5.70
2017-11-26T09:53:17.770Z,5.60
2017-11-26T09:55:45.646Z,5.70
2017-11-26T09:58:13.113Z,5.70
2017-11-26T10:00:40.554Z,5.70
2017-11-26T10:03:08.019Z,5.80
2017-11-26T10:05:35.482Z,5.90
2017-11-26T10:08:03.049Z,6.00
2017-11-26T10:10:30.536Z,6.20
2017-11-26T10:12:57.969Z,6.30
2017-11-26T10:15:25.474Z,6.40
2017-11-26T10:17:52.909Z,6.50
2017-11-26T10:20:20.771Z,6.70
2017-11-26T10:22:48.262Z,6.80
2017-11-26T10:25:16.099Z,6.70
2017-11-26T10:27:43.550Z,6.70
2017-11-26T10:30:11.023Z,6.70
2017-11-26T10:32:38.471Z,6.60
2017-11-26T10:35:05.922Z,6.50
2017-11-26T10:37:33.406Z,6.50
2017-11-26T10:40:01.527Z,6.40
2017-11-26T10:42:29.957Z,6.30
2017-11-26T10:44:57.385Z,6.30
2017-11-26T10:47:24.845Z,6.30
2017-11-26T10:49:52.350Z,6.20
2017-11-26T10:52:19.819Z,6.10
2017-11-26T10:54:47.268Z,6.10
2017-11-26T10:57:14.708Z,6.00
2017-11-26T10:59:42.155Z,6.00
2017-11-26T11:02:09.592Z,6.00
2017-11-26T11:04:37.117Z,6.00
2017-11-26T11:07:04.568Z,6.00
2017-11-26T11:09:32.002Z,5.90
2017-11-26T11:11:59.508Z,5.90
2017-11-26T11:14:26.941Z,5.90
2017-11-26T11:16:54.434Z,5.90
2017-11-26T11:19:21.865Z,5.90
2017-11-26T11:21:49.350Z,6.00
2017-11-26T11:24:16.802Z,6.00
2017-11-26T11:26:44.286Z,6.00
2017-11-26T11:29:11.747Z,6.00
2017-11-26T11:31:39.190Z,6.00
2017-11-26T11:34:06.661Z,6.00
2017-11-26T11:36:34.129Z,6.00
2017-11-26T11:39:01.571Z,6.10
2017-11-26T11:41:29.044Z,6.10
2017-11-26T11:43:56.495Z,6.10
2017-11-26T11:46:23.928Z,6.10
2017-11-26T11:48:51.375Z,6.10
2017-11-26T11:51:18.816Z,6.00
2017-11-26T11:53:46.299Z,6.10
2017-11-26T11:56:13.730Z,6.10
2017-11-26T11:58:41.158Z,6.00
2017-11-26T12:01:08.617Z,6.00
2017-11-26T12:03:36.055Z,6.00
2017-11-26T12:06:03.490Z,6.00
2017-11-26T12:08:30.967Z,5.90
2017-11-26T12:10:58.399Z,5.90
2017-11-26T12:13:26.887Z,5.90
2017-11-26T12:15:54.374Z,5.90
2017-11-26T12:18:21.775Z,5.90
2017-11-26T12:20:49.241Z,5.90
2017-11-26T12:23:16.693Z,5.90
2017-11-26T12:25:44.126Z,5.90
2017-11-26T12:28:11.570Z,5.90
2017-11-26T12:30:39.012Z,5.90
2017-11-26T12:33:06.550Z,5.90
2017-11-26T12:35:33.987Z,6.00
2017-11-26T12:38:01.462Z,5.90
2017-11-26T12:40:28.945Z,5.90
2017-11-26T12:42:56.387Z,5.90
2017-11-26T12:45:23.847Z,6.00
2017-11-26T12:47:51.310Z,6.00
2017-11-26T12:50:18.753Z,6.00
2017-11-26T12:52:46.329Z,6.10
2017-11-26T12:55:13.741Z,6.10
2017-11-26T12:57:41.178Z,6.10
2017-11-26T13:00:08.639Z,6.00
2017-11-26T13:02:36.066Z,6.10
2017-11-26T13:05:03.542Z,6.20
2017-11-26T13:07:31.051Z,6.20
2017-11-26T13:09:58.473Z,6.30
2017-11-26T13:12:25.926Z,6.30
2017-11-26T13:14:53.382Z,6.30
2017-11-26T13:17:21.108Z,6.30
2017-11-26T13:19:48.755Z,6.30
2017-11-26T13:22:16.186Z,6.20
2017-11-26T13:24:43.640Z,6.30
2017-11-26T13:27:11.107Z,6.30
2017-11-26T13:29:38.578Z,6.20
2017-11-26T13:32:06.007Z,6.30
2017-11-26T13:34:33.508Z,6.30
2017-11-26T13:37:00.974Z,6.30
2017-11-26T13:39:28.409Z,6.30
2017-11-26T13:41:55.877Z,6.30
2017-11-26T13:44:23.348Z,6.20
2017-11-26T13:46:50.794Z,6.20
2017-11-26T13:49:18.225Z,6.30
2017-11-26T13:51:45.675Z,6.30
2017-11-26T13:54:13.143Z,6.30
2017-11-26T13:56:40.650Z,6.30
2017-11-26T13:59:08.198Z,6.20
2017-11-26T14:01:35.970Z,6.30
2017-11-26T14:04:03.406Z,6.20
2017-11-26T14:06:30.854Z,6.30
2017-11-26T14:08:58.318Z,6.30
2017-11-26T14:11:25.790Z,6.30
2017-11-26T14:13:53.825Z,6.40
2017-11-26T14:16:21.562Z,6.50
2017-11-26T14:18:48.999Z,6.50
2017-11-26T14:21:16.492Z,6.50
2017-11-26T14:23:43.930Z,6.50
2017-11-26T14:26:11.422Z,6.50
2017-11-26T14:28:38.889Z,6.40
2017-11-26T14:31:06.315Z,6.40
2017-11-26T14:33:33.794Z,6.30
2017-11-26T14:36:01.225Z,6.30
2017-11-26T14:38:28.733Z,6.30
2017-11-26T14:40:56.167Z,6.20
2017-11-26T14:43:23.736Z,6.20
2017-11-26T14:45:51.186Z,6.10
2017-11-26T14:48:18.632Z,6.20
2017-11-26T14:50:46.054Z,6.10
2017-11-26T14:53:13.502Z,6.10
2017-11-26T14:55:40.937Z,6.00
2017-11-26T14:58:08.401Z,5.90
2017-11-26T15:00:35.884Z,5.90
2017-11-26T15:03:03.323Z,5.80
2017-11-26T15:05:30.773Z,5.80
2017-11-26T15:07:58.257Z,5.80
2017-11-26T15:10:25.734Z,5.80
2017-11-26T15:12:53.188Z,5.80
2017-11-26T15:15:20.627Z,5.70
2017-11-26T15:17:48.195Z,5.60
2017-11-26T15:20:15.619Z,5.50
2017-11-26T15:22:43.445Z,5.40
2017-11-26T15:25:10.886Z,5.40
2017-11-26T15:27:38.320Z,5.30
2017-11-26T15:30:05.828Z,5.20
2017-11-26T15:35:16.899Z,5.10
2017-11-26T15:37:44.590Z,5.00
2017-11-26T15:40:12.054Z,4.90
2017-11-26T15:42:39.519Z,4.80
2017-11-26T15:45:06.955Z,4.80
2017-11-26T15:47:34.422Z,4.70
2017-11-26T15:50:01.858Z,4.70
2017-11-26T15:52:29.362Z,4.70
2017-11-26T15:54:56.819Z,4.60
2017-11-26T15:57:24.246Z,4.60
2017-11-26T15:59:51.711Z,4.60
2017-11-26T16:02:19.224Z,4.50
2017-11-26T16:04:46.673Z,4.50
2017-11-26T16:07:14.127Z,4.50
2017-11-26T16:09:41.564Z,4.50
2017-11-26T16:12:09.033Z,4.50
2017-11-26T16:14:36.513Z,4.50
2017-11-26T16:17:03.942Z,4.50
2017-11-26T16:19:31.434Z,4.40
2017-11-26T16:21:58.872Z,4.40
2017-11-26T16:24:26.337Z,4.40
2017-11-26T16:26:59.400Z,4.40
2017-11-26T16:29:26.871Z,4.40
2017-11-26T16:31:54.307Z,4.30
2017-11-26T16:34:21.745Z,4.30
2017-11-26T16:36:49.205Z,4.40
2017-11-26T16:39:16.645Z,4.40
2017-11-26T16:41:44.110Z,4.40
2017-11-26T16:44:11.774Z,4.40
2017-11-26T16:46:39.335Z,4.30
2017-11-26T16:49:06.777Z,4.30
2017-11-26T16:51:34.215Z,4.30
2017-11-26T16:54:01.675Z,4.20
2017-11-26T16:56:29.106Z,4.20
2017-11-26T16:58:56.542Z,4.10
2017-11-26T17:01:24.010Z,4.10
2017-11-26T17:03:51.488Z,4.10
2017-11-26T17:06:18.922Z,4.10
2017-11-26T17:08:46.376Z,4.10
2017-11-26T17:11:13.814Z,4.10
2017-11-26T17:13:41.281Z,4.10
2017-11-26T17:16:08.791Z,4.10
2017-11-26T17:18:36.225Z,4.10
2017-11-26T17:21:03.676Z,4.10
2017-11-26T17:23:31.106Z,4.10
2017-11-26T17:25:58.577Z,4.00
2017-11-26T17:28:26.014Z,4.00
2017-11-26T17:30:53.445Z,4.00
2017-11-26T17:33:20.897Z,4.00
2017-11-26T17:35:48.610Z,4.10
2017-11-26T17:38:16.058Z,4.10
2017-11-26T17:40:43.528Z,4.10
2017-11-26T17:43:11.771Z,4.10
2017-11-26T17:45:39.222Z,4.10
2017-11-26T17:48:06.674Z,4.00
2017-11-26T17:50:34.131Z,4.00
2017-11-26T17:53:01.574Z,4.00
2017-11-26T17:55:29.000Z,4.00
2017-11-26T17:57:57.142Z,4.00
2017-11-26T18:00:25.367Z,3.90
2017-11-26T18:02:53.149Z,3.80
2017-11-26T18:05:23.835Z,3.90
2017-11-26T18:07:51.273Z,3.90
2017-11-26T18:10:18.786Z,3.90
2017-11-26T18:12:46.302Z,3.90
2017-11-26T18:15:13.773Z,3.90
2017-11-26T18:17:41.414Z,4.00
2017-11-26T18:20:08.857Z,4.00
2017-11-26T18:22:36.930Z,4.10
2017-11-26T18:25:04.418Z,4.10
2017-11-26T18:27:31.843Z,4.20
2017-11-26T18:29:59.710Z,4.20
2017-11-26T18:32:27.146Z,4.20
2017-11-26T18:34:54.992Z,4.20
2017-11-26T18:37:22.520Z,4.20
2017-11-26T18:39:50.016Z,4.20
2017-11-26T18:42:17.838Z,4.20
2017-11-26T18:44:45.262Z,4.30
2017-11-26T18:47:13.157Z,4.20
2017-11-26T18:49:40.592Z,4.30
2017-11-26T18:52:08.026Z,4.30
2017-11-26T18:54:35.579Z,4.30
2017-11-26T18:57:03.411Z,4.30
2017-11-26T18:59:30.851Z,4.30
2017-11-26T19:01:58.366Z,4.30
2017-11-26T19:04:26.206Z,4.30
2017-11-26T19:06:54.065Z,4.30
2017-11-26T19:09:21.548Z,4.30
2017-11-26T19:11:48.995Z,4.30
2017-11-26T19:14:16.479Z,4.30
2017-11-26T19:16:43.935Z,4.30
2017-11-26T19:19:11.369Z,4.30
2017-11-26T19:21:39.884Z,4.30
2017-11-26T19:24:08.832Z,4.20
2017-11-26T19:26:36.297Z,4.20
2017-11-26T19:29:03.726Z,4.30
2017-11-26T19:31:31.234Z,4.30
2017-11-26T19:33:58.690Z,4.30
2017-11-26T19:36:26.128Z,4.30
2017-11-26T19:38:53.593Z,4.30
2017-11-26T19:41:21.048Z,4.30
2017-11-26T19:43:48.479Z,4.30
2017-11-26T19:46:15.936Z,4.30
2017-11-26T19:48:43.403Z,4.40
2017-11-26T19:51:10.878Z,4.40
2017-11-26T19:53:38.319Z,4.40
2017-11-26T19:56:05.750Z,4.50
2017-11-26T19:58:34.997Z,4.50
2017-11-26T20:01:02.450Z,4.50
2017-11-26T20:03:30.189Z,4.60
2017-11-26T20:05:57.679Z,4.60
2017-11-26T20:08:25.114Z,4.60
2017-11-26T20:10:52.568Z,4.60
2017-11-26T20:13:20.043Z,4.70
2017-11-26T20:15:47.498Z,4.70
2017-11-26T20:18:15.385Z,4.70
2017-11-26T20:20:42.842Z,4.70
2017-11-26T20:23:10.323Z,4.70
2017-11-26T20:25:37.761Z,4.70
2017-11-26T20:28:05.226Z,4.70
2017-11-26T20:30:32.664Z,4.70
2017-11-26T20:33:00.098Z,4.70
2017-11-26T20:35:27.551Z,4.70
2017-11-26T20:37:54.991Z,4.70
2017-11-26T20:40:22.454Z,4.70
2017-11-26T20:42:49.898Z,4.80
2017-11-26T20:45:17.443Z,4.80
2017-11-26T20:47:44.956Z,4.80
2017-11-26T20:50:12.383Z,4.80
2017-11-26T20:52:39.850Z,4.90
2017-11-26T20:55:07.292Z,4.90
2017-11-26T20:57:34.763Z,4.90
2017-11-26T21:00:02.226Z,4.90
2017-11-26T21:02:29.658Z,4.90
2017-11-26T21:04:57.132Z,4.90
2017-11-26T21:07:24.606Z,4.90
2017-11-26T21:09:52.056Z,4.90
2017-11-26T21:12:19.541Z,4.90
2017-11-26T21:14:46.998Z,4.90
2017-11-26T21:17:14.698Z,5.00
2017-11-26T21:19:42.145Z,5.00
2017-11-26T21:22:09.818Z,5.00
2017-11-26T21:24:37.253Z,5.00
2017-11-26T21:27:04.721Z,5.00
2017-11-26T21:29:32.184Z,5.00
2017-11-26T21:31:59.622Z,5.00
2017-11-26T21:34:27.089Z,5.00
2017-11-26T21:36:54.523Z,5.00
2017-11-26T21:39:22.018Z,5.00
2017-11-26T21:41:49.560Z,5.00
2017-11-26T21:44:17.358Z,5.10
2017-11-26T21:46:44.814Z,5.10
2017-11-26T21:49:12.249Z,5.10
2017-11-26T21:51:39.687Z,5.10
2017-11-26T21:54:07.215Z,5.10
2017-11-26T21:56:34.716Z,5.10
2017-11-26T21:59:02.520Z,5.10
2017-11-26T22:01:30.072Z,5.10
2017-11-26T22:03:57.503Z,5.10
2017-11-26T22:06:24.995Z,5.10
2017-11-26T22:08:52.413Z,5.10
2017-11-26T22:11:20.226Z,5.10
2017-11-26T22:13:47.690Z,5.10
2017-11-26T22:16:15.157Z,5.20
2017-11-26T22:18:42.635Z,5.10
2017-11-26T22:21:10.075Z,5.20
2017-11-26T22:23:37.544Z,5.20
2017-11-26T22:26:04.982Z,5.20
2017-11-26T22:28:32.422Z,5.10
2017-11-26T22:30:59.941Z,5.10
2017-11-26T22:33:27.382Z,5.10
2017-11-26T22:35:54.867Z,5.10
2017-11-26T22:38:22.326Z,5.20
2017-11-26T22:40:50.178Z,5.10
2017-11-26T22:43:17.609Z,5.20
2017-11-26T22:45:45.202Z,5.10
2017-11-26T22:48:12.977Z,5.20
2017-11-26T22:50:40.434Z,5.10
2017-11-26T22:53:07.889Z,5.10
2017-11-26T22:55:35.385Z,5.20
2017-11-26T22:58:03.229Z,5.20
2017-11-26T23:00:31.107Z,5.20
2017-11-26T23:02:58.570Z,5.20
2017-11-26T23:05:26.008Z,5.20
2017-11-26T23:07:53.490Z,5.20
2017-11-26T23:10:21.034Z,5.20
2017-11-26T23:12:48.465Z,5.10
2017-11-26T23:15:15.934Z,5.10
2017-11-26T23:17:43.370Z,5.00
2017-11-26T23:20:11.203Z,5.00
2017-11-26T23:22:38.662Z,5.00
2017-11-26T23:25:06.129Z,4.90
2017-11-26T23:27:33.626Z,4.90
2017-11-26T23:30:01.063Z,4.90
2017-11-26T23:32:28.581Z,4.90
2017-11-26T23:34:56.058Z,4.90
2017-11-26T23:37:23.483Z,4.90
2017-11-26T23:39:51.302Z,4.90
2017-11-26T23:42:19.207Z,4.90
2017-11-26T23:44:47.043Z,4.90
2017-11-26T23:47:14.489Z,4.90
2017-11-26T23:49:41.922Z,5.00
2017-11-26T23:52:09.543Z,5.00
2017-11-26T23:54:37.293Z,5.00
2017-11-26T23:57:04.846Z,5.10
2017-11-26T23:59:32.626Z,5.10
